Decoded Metar for SASJ (JUJUY in ARGENTINA) (IATA:JUJ) | Meteo·Mobile Aviation Weather
aviador You're here:

SASJ Decoded Metar

JUJUY in ARGENTINA
Report Time2018-11-21 18:00:00
UTC Time2018-11-21 18:44:42
Flight Rules vfr VFR
Wind050° at 08 kt
W.Decomp.*RWY 34: 1.9 kt HW 7.8 kt RCW
W.Rank050° ranks 2
Current wind is above 050° avg. (5.8)
Visibility9999 m
Phenomena:N/A
Clouds:Few 020 Hf
Broken 100 Hf
Expected CloudBase > 3,200 ft AGL from Temp-Dew spread
Ceiling10,000 ft
Temp27°C (ISA +20)
Dew Point19°C (62% RH)
Heat Index28.2°C
QNH1011 hPa
Density Alt6,444 ft
Elevation3,829 ft
Report Wrong Elevation
Raw Report
SASJ 211800Z 05008KT 9999 FEW020 BKN100 27/19 Q1011=

Extra information for SASJ:More info

Metar Taf Metar & Taf Last 4 Metars F.Rules Stats Wind Profile Meteogram Temp Stats Airport Information Weather charts Add Link Nearby VenuesMetar ALERT Operation Metar Decoded Social comments